sensor_id;sensor_type;location;lat;lon;timestamp;pressure;altitude;pressure_sealevel;temperature;humidity
68107;BME280;54892;47.488;19.026;2024-02-04T00:01:39;100396.00;;;9.95;71.16
68107;BME280;54892;47.488;19.026;2024-02-04T00:05:02;100393.97;;;10.02;70.98
68107;BME280;54892;47.488;19.026;2024-02-04T00:08:26;100393.50;;;10.05;70.64
68107;BME280;54892;47.488;19.026;2024-02-04T00:11:50;100388.47;;;10.03;70.88
68107;BME280;54892;47.488;19.026;2024-02-04T00:15:13;100400.69;;;10.10;70.65
68107;BME280;54892;47.488;19.026;2024-02-04T00:18:36;100390.28;;;10.03;70.92
68107;BME280;54892;47.488;19.026;2024-02-04T00:21:59;100384.53;;;10.06;70.90
68107;BME280;54892;47.488;19.026;2024-02-04T00:25:23;100395.09;;;10.06;71.07
68107;BME280;54892;47.488;19.026;2024-02-04T00:28:46;100382.94;;;10.05;71.14
68107;BME280;54892;47.488;19.026;2024-02-04T00:32:10;100391.97;;;9.92;71.71
68107;BME280;54892;47.488;19.026;2024-02-04T00:35:33;100395.09;;;9.89;71.84
68107;BME280;54892;47.488;19.026;2024-02-04T00:38:56;100396.28;;;9.81;72.24
68107;BME280;54892;47.488;19.026;2024-02-04T00:42:21;100386.88;;;9.85;72.18
68107;BME280;54892;47.488;19.026;2024-02-04T00:45:44;100392.87;;;9.81;72.47
68107;BME280;54892;47.488;19.026;2024-02-04T00:49:07;100393.59;;;9.76;72.58
68107;BME280;54892;47.488;19.026;2024-02-04T00:52:30;100399.00;;;9.86;72.43
68107;BME280;54892;47.488;19.026;2024-02-04T00:55:53;100406.69;;;9.71;73.14
68107;BME280;54892;47.488;19.026;2024-02-04T00:59:18;100401.56;;;9.81;72.71
68107;BME280;54892;47.488;19.026;2024-02-04T01:02:41;100407.16;;;9.85;72.40
68107;BME280;54892;47.488;19.026;2024-02-04T01:06:04;100403.81;;;9.72;73.01
68107;BME280;54892;47.488;19.026;2024-02-04T01:09:27;100393.44;;;9.83;72.50
68107;BME280;54892;47.488;19.026;2024-02-04T01:12:51;100379.37;;;9.77;72.64
68107;BME280;54892;47.488;19.026;2024-02-04T01:16:15;100375.59;;;9.73;72.70
68107;BME280;54892;47.488;19.026;2024-02-04T01:19:39;100365.06;;;9.73;72.87
68107;BME280;54892;47.488;19.026;2024-02-04T01:23:02;100364.34;;;9.60;73.49
68107;BME280;54892;47.488;19.026;2024-02-04T01:26:25;100360.44;;;9.63;73.38
68107;BME280;54892;47.488;19.026;2024-02-04T01:29:48;100355.56;;;9.55;73.78
68107;BME280;54892;47.488;19.026;2024-02-04T01:33:13;100359.00;;;9.55;74.07
68107;BME280;54892;47.488;19.026;2024-02-04T01:36:36;100357.84;;;9.51;74.37
68107;BME280;54892;47.488;19.026;2024-02-04T01:39:59;100351.34;;;9.54;74.42
68107;BME280;54892;47.488;19.026;2024-02-04T01:43:22;100348.34;;;9.50;74.73
68107;BME280;54892;47.488;19.026;2024-02-04T01:46:45;100338.87;;;9.49;74.87
68107;BME280;54892;47.488;19.026;2024-02-04T01:50:11;100334.88;;;9.47;75.14
68107;BME280;54892;47.488;19.026;2024-02-04T01:53:34;100334.00;;;9.41;75.46
68107;BME280;54892;47.488;19.026;2024-02-04T01:56:58;100318.66;;;9.38;75.74
68107;BME280;54892;47.488;19.026;2024-02-04T02:00:23;100330.47;;;9.35;76.07
68107;BME280;54892;47.488;19.026;2024-02-04T02:03:46;100346.59;;;9.39;75.88
68107;BME280;54892;47.488;19.026;2024-02-04T02:07:12;100335.34;;;9.43;75.90
68107;BME280;54892;47.488;19.026;2024-02-04T02:10:38;100330.62;;;9.45;75.76
68107;BME280;54892;47.488;19.026;2024-02-04T02:14:06;100320.97;;;9.51;75.60
68107;BME280;54892;47.488;19.026;2024-02-04T02:17:40;100332.97;;;9.42;76.08
68107;BME280;54892;47.488;19.026;2024-02-04T02:21:19;100311.87;;;9.42;76.33
68107;BME280;54892;47.488;19.026;2024-02-04T02:24:51;100322.31;;;9.37;76.62
68107;BME280;54892;47.488;19.026;2024-02-04T02:28:14;100313.84;;;9.35;77.04
68107;BME280;54892;47.488;19.026;2024-02-04T02:31:38;100309.25;;;9.25;77.53
68107;BME280;54892;47.488;19.026;2024-02-04T02:35:05;100303.16;;;9.24;78.00
68107;BME280;54892;47.488;19.026;2024-02-04T02:38:32;100306.19;;;9.16;78.53
68107;BME280;54892;47.488;19.026;2024-02-04T02:42:01;100307.97;;;9.10;79.02
68107;BME280;54892;47.488;19.026;2024-02-04T02:45:27;100319.75;;;9.08;79.37
68107;BME280;54892;47.488;19.026;2024-02-04T02:48:51;100307.31;;;9.20;78.85
68107;BME280;54892;47.488;19.026;2024-02-04T02:52:14;100285.59;;;9.13;79.32
68107;BME280;54892;47.488;19.026;2024-02-04T02:55:37;100296.91;;;9.13;79.46
68107;BME280;54892;47.488;19.026;2024-02-04T02:59:03;100301.87;;;9.10;79.59
68107;BME280;54892;47.488;19.026;2024-02-04T03:02:26;100303.47;;;9.11;79.71
68107;BME280;54892;47.488;19.026;2024-02-04T03:05:49;100302.69;;;9.10;79.71
68107;BME280;54892;47.488;19.026;2024-02-04T03:09:12;100299.66;;;9.02;80.10
68107;BME280;54892;47.488;19.026;2024-02-04T03:12:35;100299.97;;;9.05;80.19
68107;BME280;54892;47.488;19.026;2024-02-04T03:16:00;100285.03;;;9.11;80.10
68107;BME280;54892;47.488;19.026;2024-02-04T03:19:23;100294.44;;;9.07;80.48
68107;BME280;54892;47.488;19.026;2024-02-04T03:22:47;100296.59;;;9.10;80.36
68107;BME280;54892;47.488;19.026;2024-02-04T03:26:11;100314.56;;;9.13;80.47
68107;BME280;54892;47.488;19.026;2024-02-04T03:29:34;100321.13;;;9.10;80.61
68107;BME280;54892;47.488;19.026;2024-02-04T03:32:59;100313.59;;;9.02;81.07
68107;BME280;54892;47.488;19.026;2024-02-04T03:36:23;100315.28;;;9.08;80.74
68107;BME280;54892;47.488;19.026;2024-02-04T03:39:47;100323.41;;;9.07;81.11
68107;BME280;54892;47.488;19.026;2024-02-04T03:43:10;100315.44;;;9.02;81.30
68107;BME280;54892;47.488;19.026;2024-02-04T03:46:33;100319.56;;;8.97;81.57
68107;BME280;54892;47.488;19.026;2024-02-04T03:49:57;100336.41;;;8.96;81.84
68107;BME280;54892;47.488;19.026;2024-02-04T03:53:20;100330.88;;;8.98;82.08
68107;BME280;54892;47.488;19.026;2024-02-04T03:56:44;100345.44;;;9.01;82.13
68107;BME280;54892;47.488;19.026;2024-02-04T04:00:08;100340.03;;;9.07;81.96
68107;BME280;54892;47.488;19.026;2024-02-04T04:03:32;100347.91;;;9.07;82.00
68107;BME280;54892;47.488;19.026;2024-02-04T04:06:56;100349.59;;;9.13;81.82
68107;BME280;54892;47.488;19.026;2024-02-04T04:10:19;100354.72;;;9.20;81.71
68107;BME280;54892;47.488;19.026;2024-02-04T04:13:42;100355.84;;;9.24;81.33
68107;BME280;54892;47.488;19.026;2024-02-04T04:17:05;100359.03;;;9.26;81.21
68107;BME280;54892;47.488;19.026;2024-02-04T04:20:28;100361.22;;;9.29;81.23
68107;BME280;54892;47.488;19.026;2024-02-04T04:23:53;100351.81;;;9.34;81.01
68107;BME280;54892;47.488;19.026;2024-02-04T04:27:16;100342.00;;;9.46;80.47
68107;BME280;54892;47.488;19.026;2024-02-04T04:30:39;100355.53;;;9.38;80.78
68107;BME280;54892;47.488;19.026;2024-02-04T04:34:02;100346.28;;;9.35;81.01
68107;BME280;54892;47.488;19.026;2024-02-04T04:37:25;100338.94;;;9.37;81.05
68107;BME280;54892;47.488;19.026;2024-02-04T04:40:50;100344.63;;;9.46;80.33
68107;BME280;54892;47.488;19.026;2024-02-04T04:44:13;100354.59;;;9.44;80.55
68107;BME280;54892;47.488;19.026;2024-02-04T04:47:36;100359.97;;;9.49;80.36
68107;BME280;54892;47.488;19.026;2024-02-04T04:50:59;100339.09;;;9.48;80.15
68107;BME280;54892;47.488;19.026;2024-02-04T04:54:22;100330.22;;;9.37;80.58
68107;BME280;54892;47.488;19.026;2024-02-04T04:57:47;100318.03;;;9.31;80.37
68107;BME280;54892;47.488;19.026;2024-02-04T05:01:10;100330.84;;;9.27;80.51
68107;BME280;54892;47.488;19.026;2024-02-04T05:04:33;100321.50;;;9.19;80.84
68107;BME280;54892;47.488;19.026;2024-02-04T05:07:56;100319.78;;;9.25;80.58
68107;BME280;54892;47.488;19.026;2024-02-04T05:11:19;100319.06;;;9.29;80.17
68107;BME280;54892;47.488;19.026;2024-02-04T05:14:44;100301.34;;;9.42;79.52
68107;BME280;54892;47.488;19.026;2024-02-04T05:18:07;100317.06;;;9.37;79.64
68107;BME280;54892;47.488;19.026;2024-02-04T05:21:30;100317.63;;;9.22;79.95
68107;BME280;54892;47.488;19.026;2024-02-04T05:24:53;100317.31;;;9.18;80.20
68107;BME280;54892;47.488;19.026;2024-02-04T05:28:16;100316.75;;;9.16;80.23
68107;BME280;54892;47.488;19.026;2024-02-04T05:31:44;100320.81;;;9.24;79.92
68107;BME280;54892;47.488;19.026;2024-02-04T05:35:07;100316.50;;;9.18;80.19
68107;BME280;54892;47.488;19.026;2024-02-04T05:38:30;100319.28;;;9.11;80.58
68107;BME280;54892;47.488;19.026;2024-02-04T05:41:53;100307.16;;;9.10;80.70
68107;BME280;54892;47.488;19.026;2024-02-04T05:45:17;100303.16;;;9.07;80.86
68107;BME280;54892;47.488;19.026;2024-02-04T05:48:41;100302.03;;;9.20;80.36
68107;BME280;54892;47.488;19.026;2024-02-04T05:52:06;100290.88;;;9.13;80.70
68107;BME280;54892;47.488;19.026;2024-02-04T05:55:29;100289.75;;;9.09;80.87
68107;BME280;54892;47.488;19.026;2024-02-04T05:58:53;100290.22;;;9.06;81.03
68107;BME280;54892;47.488;19.026;2024-02-04T06:02:16;100309.13;;;9.03;81.23
68107;BME280;54892;47.488;19.026;2024-02-04T06:05:40;100319.09;;;9.01;81.50
68107;BME280;54892;47.488;19.026;2024-02-04T06:09:03;100324.84;;;8.97;81.88
68107;BME280;54892;47.488;19.026;2024-02-04T06:12:26;100318.06;;;9.02;81.86
68107;BME280;54892;47.488;19.026;2024-02-04T06:15:49;100317.50;;;8.99;81.92
68107;BME280;54892;47.488;19.026;2024-02-04T06:19:13;100316.69;;;8.99;82.10
68107;BME280;54892;47.488;19.026;2024-02-04T06:22:38;100321.16;;;8.98;82.23
68107;BME280;54892;47.488;19.026;2024-02-04T06:26:01;100333.91;;;8.90;82.76
68107;BME280;54892;47.488;19.026;2024-02-04T06:29:24;100331.03;;;8.91;82.75
68107;BME280;54892;47.488;19.026;2024-02-04T06:32:47;100333.19;;;8.94;82.73
68107;BME280;54892;47.488;19.026;2024-02-04T06:36:11;100339.50;;;8.93;82.84
68107;BME280;54892;47.488;19.026;2024-02-04T06:39:35;100334.22;;;8.93;82.60
68107;BME280;54892;47.488;19.026;2024-02-04T06:42:58;100344.28;;;8.96;82.44
68107;BME280;54892;47.488;19.026;2024-02-04T06:46:25;100360.09;;;8.96;82.55
68107;BME280;54892;47.488;19.026;2024-02-04T06:49:48;100356.75;;;9.01;82.43
68107;BME280;54892;47.488;19.026;2024-02-04T06:53:12;100356.94;;;9.11;81.94
68107;BME280;54892;47.488;19.026;2024-02-04T06:56:36;100358.63;;;9.18;81.46
68107;BME280;54892;47.488;19.026;2024-02-04T06:59:59;100358.47;;;9.24;81.37
68107;BME280;54892;47.488;19.026;2024-02-04T07:03:22;100362.09;;;9.35;80.94
68107;BME280;54892;47.488;19.026;2024-02-04T07:06:46;100362.09;;;9.35;80.99
68107;BME280;54892;47.488;19.026;2024-02-04T07:10:09;100369.75;;;9.37;81.02
68107;BME280;54892;47.488;19.026;2024-02-04T07:13:34;100364.41;;;9.49;80.43
68107;BME280;54892;47.488;19.026;2024-02-04T07:16:57;100382.47;;;9.74;79.19
68107;BME280;54892;47.488;19.026;2024-02-04T07:20:20;100378.84;;;10.14;77.09
68107;BME280;54892;47.488;19.026;2024-02-04T07:23:43;100376.19;;;10.14;76.99
68107;BME280;54892;47.488;19.026;2024-02-04T07:27:06;100374.91;;;9.95;77.78
68107;BME280;54892;47.488;19.026;2024-02-04T07:30:30;100360.97;;;9.82;78.28
68107;BME280;54892;47.488;19.026;2024-02-04T07:33:53;100366.25;;;9.82;78.35
68107;BME280;54892;47.488;19.026;2024-02-04T07:37:17;100364.16;;;9.84;78.13
68107;BME280;54892;47.488;19.026;2024-02-04T07:40:40;100370.41;;;9.95;77.87
68107;BME280;54892;47.488;19.026;2024-02-04T07:44:03;100363.38;;;10.01;77.61
68107;BME280;54892;47.488;19.026;2024-02-04T07:47:28;100366.88;;;10.06;77.03
68107;BME280;54892;47.488;19.026;2024-02-04T07:50:51;100369.59;;;10.12;76.22
68107;BME280;54892;47.488;19.026;2024-02-04T07:54:14;100370.88;;;10.09;76.54
68107;BME280;54892;47.488;19.026;2024-02-04T07:57:37;100383.41;;;10.19;75.92
68107;BME280;54892;47.488;19.026;2024-02-04T08:01:01;100390.94;;;10.10;76.30
68107;BME280;54892;47.488;19.026;2024-02-04T08:04:25;100375.34;;;10.09;76.17
68107;BME280;54892;47.488;19.026;2024-02-04T08:07:48;100384.62;;;10.11;76.10
68107;BME280;54892;47.488;19.026;2024-02-04T08:11:15;100370.94;;;10.14;75.86
68107;BME280;54892;47.488;19.026;2024-02-04T08:14:39;100378.44;;;10.23;75.80
68107;BME280;54892;47.488;19.026;2024-02-04T08:18:02;100382.34;;;10.20;75.51
68107;BME280;54892;47.488;19.026;2024-02-04T08:21:29;100362.19;;;10.31;74.74
68107;BME280;54892;47.488;19.026;2024-02-04T08:24:53;100360.66;;;10.35;74.76
68107;BME280;54892;47.488;19.026;2024-02-04T08:28:16;100365.50;;;10.38;75.00
68107;BME280;54892;47.488;19.026;2024-02-04T08:31:39;100373.41;;;10.38;75.17
68107;BME280;54892;47.488;19.026;2024-02-04T08:35:03;100388.94;;;10.57;74.07
68107;BME280;54892;47.488;19.026;2024-02-04T08:38:28;100387.28;;;10.50;74.00
68107;BME280;54892;47.488;19.026;2024-02-04T08:41:51;100379.19;;;10.57;73.68
68107;BME280;54892;47.488;19.026;2024-02-04T08:45:14;100395.28;;;10.56;73.72
68107;BME280;54892;47.488;19.026;2024-02-04T08:48:38;100393.84;;;10.48;73.28
68107;BME280;54892;47.488;19.026;2024-02-04T08:52:01;100399.13;;;10.48;73.61
68107;BME280;54892;47.488;19.026;2024-02-04T08:55:25;100390.66;;;10.68;72.98
68107;BME280;54892;47.488;19.026;2024-02-04T08:58:49;100386.97;;;10.69;72.41
68107;BME280;54892;47.488;19.026;2024-02-04T09:02:12;100398.69;;;10.78;71.72
68107;BME280;54892;47.488;19.026;2024-02-04T09:05:35;100385.06;;;10.87;71.29
68107;BME280;54892;47.488;19.026;2024-02-04T09:08:58;100377.34;;;10.80;70.97
68107;BME280;54892;47.488;19.026;2024-02-04T09:12:22;100364.53;;;10.94;70.04
68107;BME280;54892;47.488;19.026;2024-02-04T09:15:45;100363.97;;;10.92;69.90
68107;BME280;54892;47.488;19.026;2024-02-04T09:19:09;100353.00;;;11.00;69.60
68107;BME280;54892;47.488;19.026;2024-02-04T09:22:32;100348.84;;;11.09;69.60
68107;BME280;54892;47.488;19.026;2024-02-04T09:25:55;100344.09;;;11.11;69.05
68107;BME280;54892;47.488;19.026;2024-02-04T09:29:20;100358.28;;;11.27;67.81
68107;BME280;54892;47.488;19.026;2024-02-04T09:32:43;100365.09;;;11.23;68.52
68107;BME280;54892;47.488;19.026;2024-02-04T09:36:06;100356.25;;;11.40;67.72
68107;BME280;54892;47.488;19.026;2024-02-04T09:39:30;100362.94;;;11.48;66.89
68107;BME280;54892;47.488;19.026;2024-02-04T09:42:53;100364.59;;;11.59;67.47
68107;BME280;54892;47.488;19.026;2024-02-04T09:46:18;100356.28;;;11.78;66.69
68107;BME280;54892;47.488;19.026;2024-02-04T09:49:42;100365.63;;;11.91;66.29
68107;BME280;54892;47.488;19.026;2024-02-04T09:53:07;100354.59;;;11.99;66.32
68107;BME280;54892;47.488;19.026;2024-02-04T09:56:32;100365.63;;;11.91;66.19
68107;BME280;54892;47.488;19.026;2024-02-04T09:59:56;100383.37;;;11.95;66.13
68107;BME280;54892;47.488;19.026;2024-02-04T10:03:20;100363.50;;;11.93;66.52
68107;BME280;54892;47.488;19.026;2024-02-04T10:06:44;100374.41;;;11.96;66.45
68107;BME280;54892;47.488;19.026;2024-02-04T10:10:08;100366.50;;;12.01;66.08
68107;BME280;54892;47.488;19.026;2024-02-04T10:13:42;100366.28;;;12.03;66.58
68107;BME280;54892;47.488;19.026;2024-02-04T10:17:05;100350.72;;;12.17;64.71
68107;BME280;54892;47.488;19.026;2024-02-04T10:20:29;100348.38;;;12.21;64.44
68107;BME280;54892;47.488;19.026;2024-02-04T10:23:53;100352.09;;;12.25;64.17
68107;BME280;54892;47.488;19.026;2024-02-04T10:27:17;100329.91;;;12.36;64.08
68107;BME280;54892;47.488;19.026;2024-02-04T10:30:43;100341.31;;;12.47;63.47
68107;BME280;54892;47.488;19.026;2024-02-04T10:34:06;100334.97;;;12.43;63.04
68107;BME280;54892;47.488;19.026;2024-02-04T10:37:31;100326.72;;;12.39;63.31
68107;BME280;54892;47.488;19.026;2024-02-04T10:40:54;100301.63;;;12.47;63.05
68107;BME280;54892;47.488;19.026;2024-02-04T10:44:21;100302.72;;;12.56;62.25
68107;BME280;54892;47.488;19.026;2024-02-04T10:47:44;100297.69;;;12.60;62.15
68107;BME280;54892;47.488;19.026;2024-02-04T10:51:12;100305.13;;;12.68;61.93
68107;BME280;54892;47.488;19.026;2024-02-04T10:54:37;100310.19;;;12.75;61.90
68107;BME280;54892;47.488;19.026;2024-02-04T10:58:02;100299.03;;;12.78;61.65
68107;BME280;54892;47.488;19.026;2024-02-04T11:01:26;100296.66;;;12.71;62.22
68107;BME280;54892;47.488;19.026;2024-02-04T11:04:49;100282.38;;;12.83;61.49
68107;BME280;54892;47.488;19.026;2024-02-04T11:08:13;100282.09;;;12.79;61.75
68107;BME280;54892;47.488;19.026;2024-02-04T11:11:38;100282.91;;;12.79;61.49
68107;BME280;54892;47.488;19.026;2024-02-04T11:15:04;100283.72;;;12.85;61.70
68107;BME280;54892;47.488;19.026;2024-02-04T11:18:49;100290.06;;;13.00;60.73
68107;BME280;54892;47.488;19.026;2024-02-04T11:22:35;100288.75;;;12.92;60.96
68107;BME280;54892;47.488;19.026;2024-02-04T11:26:05;100274.44;;;12.83;60.92
68107;BME280;54892;47.488;19.026;2024-02-04T11:29:30;100291.91;;;12.89;60.52
68107;BME280;54892;47.488;19.026;2024-02-04T11:32:53;100287.94;;;12.97;59.66
68107;BME280;54892;47.488;19.026;2024-02-04T11:36:16;100277.63;;;12.90;59.78
68107;BME280;54892;47.488;19.026;2024-02-04T11:39:48;100285.84;;;12.99;60.31
68107;BME280;54892;47.488;19.026;2024-02-04T11:43:12;100281.59;;;13.08;59.27
68107;BME280;54892;47.488;19.026;2024-02-04T11:46:36;100275.75;;;13.11;58.35
68107;BME280;54892;47.488;19.026;2024-02-04T11:50:00;100256.44;;;13.05;58.65
68107;BME280;54892;47.488;19.026;2024-02-04T11:53:23;100249.28;;;13.01;58.16
68107;BME280;54892;47.488;19.026;2024-02-04T11:56:49;100245.56;;;13.07;57.87
68107;BME280;54892;47.488;19.026;2024-02-04T12:00:15;100245.56;;;13.07;58.22
68107;BME280;54892;47.488;19.026;2024-02-04T12:03:40;100246.87;;;13.20;58.21
68107;BME280;54892;47.488;19.026;2024-02-04T12:07:03;100241.06;;;13.23;57.85
68107;BME280;54892;47.488;19.026;2024-02-04T12:10:26;100230.97;;;13.30;57.21
68107;BME280;54892;47.488;19.026;2024-02-04T12:13:51;100215.59;;;13.37;56.62
68107;BME280;54892;47.488;19.026;2024-02-04T12:17:15;100216.66;;;13.42;56.22
68107;BME280;54892;47.488;19.026;2024-02-04T12:20:39;100212.16;;;13.42;56.30
68107;BME280;54892;47.488;19.026;2024-02-04T12:24:03;100229.66;;;13.43;56.62
68107;BME280;54892;47.488;19.026;2024-02-04T12:27:27;100232.81;;;13.45;56.88
68107;BME280;54892;47.488;19.026;2024-02-04T12:30:53;100236.00;;;13.37;56.57
68107;BME280;54892;47.488;19.026;2024-02-04T12:34:17;100233.34;;;13.32;56.90
68107;BME280;54892;47.488;19.026;2024-02-04T12:37:51;100245.28;;;13.24;57.24
68107;BME280;54892;47.488;19.026;2024-02-04T12:41:14;100251.66;;;13.18;57.71
68107;BME280;54892;47.488;19.026;2024-02-04T12:44:37;100248.72;;;13.09;57.97
68107;BME280;54892;47.488;19.026;2024-02-04T12:48:01;100256.94;;;13.02;58.56
68107;BME280;54892;47.488;19.026;2024-02-04T12:51:25;100251.38;;;12.93;58.80
68107;BME280;54892;47.488;19.026;2024-02-04T12:54:50;100256.66;;;12.78;59.65
68107;BME280;54892;47.488;19.026;2024-02-04T12:58:14;100249.78;;;12.82;59.85
68107;BME280;54892;47.488;19.026;2024-02-04T13:01:39;100237.63;;;12.76;59.93
68107;BME280;54892;47.488;19.026;2024-02-04T13:05:03;100229.38;;;12.72;60.53
68107;BME280;54892;47.488;19.026;2024-02-04T13:08:26;100220.41;;;12.84;60.43
68107;BME280;54892;47.488;19.026;2024-02-04T13:11:52;100227.28;;;12.90;60.40
68107;BME280;54892;47.488;19.026;2024-02-04T13:15:15;100234.19;;;12.96;60.67
68107;BME280;54892;47.488;19.026;2024-02-04T13:18:38;100239.47;;;12.81;61.28
68107;BME280;54892;47.488;19.026;2024-02-04T13:22:01;100220.63;;;12.77;61.69
68107;BME280;54892;47.488;19.026;2024-02-04T13:25:25;100217.72;;;12.73;61.59
68107;BME280;54892;47.488;19.026;2024-02-04T13:28:49;100206.87;;;12.80;61.49
68107;BME280;54892;47.488;19.026;2024-02-04T13:32:12;100210.31;;;12.75;61.86
68107;BME280;54892;47.488;19.026;2024-02-04T13:35:36;100216.94;;;12.78;62.06
68107;BME280;54892;47.488;19.026;2024-02-04T13:38:59;100188.34;;;12.75;61.90
68107;BME280;54892;47.488;19.026;2024-02-04T13:42:22;100184.13;;;12.74;61.85
68107;BME280;54892;47.488;19.026;2024-02-04T13:45:46;100168.50;;;12.67;61.76
68107;BME280;54892;47.488;19.026;2024-02-04T13:49:09;100181.19;;;12.70;61.97
68107;BME280;54892;47.488;19.026;2024-02-04T13:52:34;100182.00;;;12.76;62.05
68107;BME280;54892;47.488;19.026;2024-02-04T13:55:57;100191.50;;;12.82;61.20
68107;BME280;54892;47.488;19.026;2024-02-04T13:59:20;100188.34;;;12.75;61.81
68107;BME280;54892;47.488;19.026;2024-02-04T14:02:44;100189.41;;;12.74;61.86
68107;BME280;54892;47.488;19.026;2024-02-04T14:06:07;100180.91;;;12.67;62.17
68107;BME280;54892;47.488;19.026;2024-02-04T14:09:31;100192.59;;;12.71;62.44
68107;BME280;54892;47.488;19.026;2024-02-04T14:12:54;100177.22;;;12.68;62.42
68107;BME280;54892;47.488;19.026;2024-02-04T14:16:17;100175.34;;;12.58;63.02
68107;BME280;54892;47.488;19.026;2024-02-04T14:19:41;100180.38;;;12.49;63.53
68107;BME280;54892;47.488;19.026;2024-02-04T14:23:07;100175.38;;;12.53;63.82
68107;BME280;54892;47.488;19.026;2024-02-04T14:26:30;100179.31;;;12.66;62.83
68107;BME280;54892;47.488;19.026;2024-02-04T14:29:54;100172.19;;;12.61;63.16
68107;BME280;54892;47.488;19.026;2024-02-04T14:33:17;100169.78;;;12.54;63.79
68107;BME280;54892;47.488;19.026;2024-02-04T14:36:42;100166.09;;;12.55;63.96
68107;BME280;54892;47.488;19.026;2024-02-04T14:40:06;100151.78;;;12.61;63.84
68107;BME280;54892;47.488;19.026;2024-02-04T14:43:30;100160.28;;;12.58;64.04
68107;BME280;54892;47.488;19.026;2024-02-04T14:46:53;100152.84;;;12.55;64.19
68107;BME280;54892;47.488;19.026;2024-02-04T14:50:16;100140.66;;;12.54;64.14
68107;BME280;54892;47.488;19.026;2024-02-04T14:53:41;100143.34;;;12.59;63.75
68107;BME280;54892;47.488;19.026;2024-02-04T14:57:05;100141.75;;;12.58;63.82
68107;BME280;54892;47.488;19.026;2024-02-04T15:00:28;100147.56;;;12.55;64.28
68107;BME280;54892;47.488;19.026;2024-02-04T15:03:51;100153.38;;;12.52;64.54
68107;BME280;54892;47.488;19.026;2024-02-04T15:07:15;100141.19;;;12.51;64.39
68107;BME280;54892;47.488;19.026;2024-02-04T15:10:39;100120.56;;;12.43;64.26
68107;BME280;54892;47.488;19.026;2024-02-04T15:14:02;100128.47;;;12.32;63.93
68107;BME280;54892;47.488;19.026;2024-02-04T15:17:26;100129.25;;;12.23;63.97
68107;BME280;54892;47.488;19.026;2024-02-04T15:20:50;100126.88;;;12.11;64.27
68107;BME280;54892;47.488;19.026;2024-02-04T15:24:14;100118.37;;;12.03;64.65
68107;BME280;54892;47.488;19.026;2024-02-04T15:27:39;100120.47;;;11.96;64.96
68107;BME280;54892;47.488;19.026;2024-02-04T15:31:03;100124.94;;;11.96;65.11
68107;BME280;54892;47.488;19.026;2024-02-04T15:34:27;100117.28;;;11.94;64.97
68107;BME280;54892;47.488;19.026;2024-02-04T15:37:53;100119.88;;;11.79;65.67
68107;BME280;54892;47.488;19.026;2024-02-04T15:41:19;100112.47;;;11.76;65.87
68107;BME280;54892;47.488;19.026;2024-02-04T15:44:44;100109.78;;;11.70;66.01
68107;BME280;54892;47.488;19.026;2024-02-04T15:48:09;100110.53;;;11.61;66.47
68107;BME280;54892;47.488;19.026;2024-02-04T15:51:33;100117.16;;;11.58;66.78
68107;BME280;54892;47.488;19.026;2024-02-04T15:54:57;100103.12;;;11.52;66.97
68107;BME280;54892;47.488;19.026;2024-02-04T15:58:21;100117.34;;;11.46;67.30
68107;BME280;54892;47.488;19.026;2024-02-04T16:01:48;100113.66;;;11.42;67.38
68107;BME280;54892;47.488;19.026;2024-02-04T16:05:13;100117.59;;;11.39;67.67
68107;BME280;54892;47.488;19.026;2024-02-04T16:08:36;100103.56;;;11.34;67.60
68107;BME280;54892;47.488;19.026;2024-02-04T16:12:04;100102.28;;;11.36;67.87
68107;BME280;54892;47.488;19.026;2024-02-04T16:15:29;100125.75;;;11.27;68.00
68107;BME280;54892;47.488;19.026;2024-02-04T16:18:54;100106.47;;;11.32;67.78
68107;BME280;54892;47.488;19.026;2024-02-04T16:22:19;100110.88;;;11.16;68.33
68107;BME280;54892;47.488;19.026;2024-02-04T16:25:42;100114.63;;;11.25;67.86
68107;BME280;54892;47.488;19.026;2024-02-04T16:29:05;100109.59;;;11.24;67.82
68107;BME280;54892;47.488;19.026;2024-02-04T16:32:29;100112.50;;;11.22;67.87
68107;BME280;54892;47.488;19.026;2024-02-04T16:35:53;100103.81;;;11.27;66.75
68107;BME280;54892;47.488;19.026;2024-02-04T16:39:16;100111.72;;;11.27;66.61
68107;BME280;54892;47.488;19.026;2024-02-04T16:42:39;100114.94;;;11.39;66.24
68107;BME280;54892;47.488;19.026;2024-02-04T16:46:03;100117.78;;;11.22;66.88
68107;BME280;54892;47.488;19.026;2024-02-04T16:49:26;100110.69;;;11.28;66.23
68107;BME280;54892;47.488;19.026;2024-02-04T16:52:51;100115.19;;;11.27;65.98
68107;BME280;54892;47.488;19.026;2024-02-04T16:56:17;100119.66;;;11.27;65.95
68107;BME280;54892;47.488;19.026;2024-02-04T16:59:41;100112.53;;;11.27;66.11
68107;BME280;54892;47.488;19.026;2024-02-04T17:03:08;100124.94;;;11.27;66.27
68107;BME280;54892;47.488;19.026;2024-02-04T17:06:32;100113.34;;;11.33;66.04
68107;BME280;54892;47.488;19.026;2024-02-04T17:09:57;100126.75;;;11.21;66.62
68107;BME280;54892;47.488;19.026;2024-02-04T17:13:20;100096.38;;;11.19;66.51
68107;BME280;54892;47.488;19.026;2024-02-04T17:16:48;100110.41;;;11.24;66.13
68107;BME280;54892;47.488;19.026;2024-02-04T17:20:22;100108.00;;;11.23;65.95
68107;BME280;54892;47.488;19.026;2024-02-04T17:23:53;100089.31;;;11.35;65.25
68107;BME280;54892;47.488;19.026;2024-02-04T17:27:24;100093.81;;;11.39;64.50
68107;BME280;54892;47.488;19.026;2024-02-04T17:30:48;100080.91;;;11.43;64.18
68107;BME280;54892;47.488;19.026;2024-02-04T17:34:12;100084.84;;;11.35;64.63
68107;BME280;54892;47.488;19.026;2024-02-04T17:37:36;100075.31;;;11.39;64.18